sensor_id;sensor_type;location;lat;lon;timestamp;pressure;altitude;pressure_sealevel;temperature;humidity
65013;BME280;51715;39.432;-77.518;2023-08-20T00:01:56;99656.61;;;28.67;26.88
65013;BME280;51715;39.432;-77.518;2023-08-20T00:04:27;99662.94;;;28.33;27.89
65013;BME280;51715;39.432;-77.518;2023-08-20T00:06:56;99667.86;;;27.84;28.45
65013;BME280;51715;39.432;-77.518;2023-08-20T00:09:24;99669.67;;;27.75;29.01
65013;BME280;51715;39.432;-77.518;2023-08-20T00:11:52;99673.49;;;27.83;28.88
65013;BME280;51715;39.432;-77.518;2023-08-20T00:14:21;99673.88;;;27.44;28.96
65013;BME280;51715;39.432;-77.518;2023-08-20T00:17:19;99681.99;;;27.56;29.23
65013;BME280;51715;39.432;-77.518;2023-08-20T00:19:49;99688.93;;;27.18;29.23
65013;BME280;51715;39.432;-77.518;2023-08-20T00:22:19;99695.16;;;27.45;30.18
65013;BME280;51715;39.432;-77.518;2023-08-20T00:24:49;99697.09;;;27.12;30.34
65013;BME280;51715;39.432;-77.518;2023-08-20T00:27:18;99699.12;;;27.23;30.39
65013;BME280;51715;39.432;-77.518;2023-08-20T00:29:47;99704.24;;;27.16;30.95
65013;BME280;51715;39.432;-77.518;2023-08-20T00:32:16;99710.29;;;26.63;31.23
65013;BME280;51715;39.432;-77.518;2023-08-20T00:34:44;99712.97;;;26.80;31.45
65013;BME280;51715;39.432;-77.518;2023-08-20T00:37:13;99712.26;;;26.97;31.29
65013;BME280;51715;39.432;-77.518;2023-08-20T00:39:41;99717.78;;;26.92;31.77
65013;BME280;51715;39.432;-77.518;2023-08-20T00:42:09;99719.90;;;26.79;31.78
65013;BME280;51715;39.432;-77.518;2023-08-20T00:44:36;99725.35;;;26.58;31.51
65013;BME280;51715;39.432;-77.518;2023-08-20T00:47:06;99730.75;;;26.66;31.54
65013;BME280;51715;39.432;-77.518;2023-08-20T00:49:35;99734.81;;;26.39;32.16
65013;BME280;51715;39.432;-77.518;2023-08-20T00:52:03;99738.37;;;26.22;32.47
65013;BME280;51715;39.432;-77.518;2023-08-20T00:54:32;99744.38;;;25.79;32.55
65013;BME280;51715;39.432;-77.518;2023-08-20T00:57:02;99744.48;;;26.19;32.27
65013;BME280;51715;39.432;-77.518;2023-08-20T00:59:30;99747.14;;;25.92;32.43
65013;BME280;51715;39.432;-77.518;2023-08-20T01:02:00;99753.44;;;25.61;32.47
65013;BME280;51715;39.432;-77.518;2023-08-20T01:04:29;99755.11;;;25.85;32.21
65013;BME280;51715;39.432;-77.518;2023-08-20T01:07:04;99764.86;;;25.80;32.44
65013;BME280;51715;39.432;-77.518;2023-08-20T01:09:43;99773.77;;;25.87;33.09
65013;BME280;51715;39.432;-77.518;2023-08-20T01:12:17;99775.57;;;25.71;34.02
65013;BME280;51715;39.432;-77.518;2023-08-20T01:14:46;99775.71;;;25.39;33.61
65013;BME280;51715;39.432;-77.518;2023-08-20T01:17:14;99769.83;;;25.56;33.47
65013;BME280;51715;39.432;-77.518;2023-08-20T01:19:44;99767.94;;;25.49;33.87
65013;BME280;51715;39.432;-77.518;2023-08-20T01:22:29;99772.03;;;25.44;33.24
65013;BME280;51715;39.432;-77.518;2023-08-20T01:25:11;99778.44;;;25.40;33.19
65013;BME280;51715;39.432;-77.518;2023-08-20T01:27:48;99780.61;;;25.28;33.89
65013;BME280;51715;39.432;-77.518;2023-08-20T01:30:21;99785.41;;;24.97;33.89
65013;BME280;51715;39.432;-77.518;2023-08-20T01:32:52;99785.31;;;25.37;34.22
65013;BME280;51715;39.432;-77.518;2023-08-20T01:35:22;99784.35;;;24.85;34.59
65013;BME280;51715;39.432;-77.518;2023-08-20T01:37:52;99787.74;;;24.70;35.18
65013;BME280;51715;39.432;-77.518;2023-08-20T01:40:20;99789.13;;;24.84;35.87
65013;BME280;51715;39.432;-77.518;2023-08-20T01:42:49;99789.98;;;24.97;35.69
65013;BME280;51715;39.432;-77.518;2023-08-20T01:45:17;99788.28;;;24.68;35.44
65013;BME280;51715;39.432;-77.518;2023-08-20T01:47:46;99788.80;;;24.61;35.78
65013;BME280;51715;39.432;-77.518;2023-08-20T01:50:14;99793.00;;;24.58;35.18
65013;BME280;51715;39.432;-77.518;2023-08-20T01:52:42;99791.89;;;24.56;35.57
65013;BME280;51715;39.432;-77.518;2023-08-20T01:55:10;99791.42;;;24.51;35.62
65013;BME280;51715;39.432;-77.518;2023-08-20T01:57:39;99792.40;;;24.72;35.49
65013;BME280;51715;39.432;-77.518;2023-08-20T02:00:07;99793.20;;;24.48;35.21
65013;BME280;51715;39.432;-77.518;2023-08-20T02:02:36;99792.59;;;24.19;35.31
65013;BME280;51715;39.432;-77.518;2023-08-20T02:05:07;99794.48;;;24.38;36.19
65013;BME280;51715;39.432;-77.518;2023-08-20T02:07:37;99799.42;;;24.48;36.06
65013;BME280;51715;39.432;-77.518;2023-08-20T02:10:07;99803.91;;;24.41;35.93
65013;BME280;51715;39.432;-77.518;2023-08-20T02:12:35;99805.12;;;24.17;35.88
65013;BME280;51715;39.432;-77.518;2023-08-20T02:15:02;99811.16;;;24.37;35.55
65013;BME280;51715;39.432;-77.518;2023-08-20T02:17:31;99813.74;;;24.33;36.00
65013;BME280;51715;39.432;-77.518;2023-08-20T02:20:00;99819.68;;;24.27;36.15
65013;BME280;51715;39.432;-77.518;2023-08-20T02:22:28;99821.05;;;24.13;36.08
65013;BME280;51715;39.432;-77.518;2023-08-20T02:24:56;99819.25;;;24.29;36.72
65013;BME280;51715;39.432;-77.518;2023-08-20T02:27:24;99817.89;;;24.02;36.39
65013;BME280;51715;39.432;-77.518;2023-08-20T02:29:52;99821.19;;;24.01;35.55
65013;BME280;51715;39.432;-77.518;2023-08-20T02:32:20;99823.17;;;24.22;36.34
65013;BME280;51715;39.432;-77.518;2023-08-20T02:34:50;99823.71;;;23.94;36.43
65013;BME280;51715;39.432;-77.518;2023-08-20T02:37:18;99826.44;;;23.94;36.14
65013;BME280;51715;39.432;-77.518;2023-08-20T02:39:48;99827.63;;;24.05;36.29
65013;BME280;51715;39.432;-77.518;2023-08-20T02:42:15;99829.45;;;23.77;35.91
65013;BME280;51715;39.432;-77.518;2023-08-20T02:44:44;99830.67;;;23.72;36.39
65013;BME280;51715;39.432;-77.518;2023-08-20T02:47:13;99836.56;;;24.18;36.24
65013;BME280;51715;39.432;-77.518;2023-08-20T02:49:41;99836.54;;;23.66;36.10
65013;BME280;51715;39.432;-77.518;2023-08-20T02:52:10;99837.10;;;23.86;36.73
65013;BME280;51715;39.432;-77.518;2023-08-20T02:54:38;99836.80;;;23.81;36.28
65013;BME280;51715;39.432;-77.518;2023-08-20T02:57:06;99837.42;;;23.71;36.98
65013;BME280;51715;39.432;-77.518;2023-08-20T02:59:35;99837.30;;;23.56;37.10
65013;BME280;51715;39.432;-77.518;2023-08-20T03:02:03;99835.40;;;23.71;37.03
65013;BME280;51715;39.432;-77.518;2023-08-20T03:04:32;99835.66;;;23.67;36.71
65013;BME280;51715;39.432;-77.518;2023-08-20T03:07:00;99837.55;;;23.13;37.19
65013;BME280;51715;39.432;-77.518;2023-08-20T03:09:28;99834.55;;;23.28;37.71
65013;BME280;51715;39.432;-77.518;2023-08-20T03:11:57;99835.04;;;23.49;37.55
65013;BME280;51715;39.432;-77.518;2023-08-20T03:14:25;99829.02;;;23.39;37.24
65013;BME280;51715;39.432;-77.518;2023-08-20T03:16:53;99827.73;;;23.04;37.36
65013;BME280;51715;39.432;-77.518;2023-08-20T03:19:21;99824.53;;;23.02;37.63
65013;BME280;51715;39.432;-77.518;2023-08-20T03:21:50;99825.28;;;23.21;38.14
65013;BME280;51715;39.432;-77.518;2023-08-20T03:24:19;99824.57;;;23.18;37.48
65013;BME280;51715;39.432;-77.518;2023-08-20T03:26:47;99827.52;;;23.11;37.45
65013;BME280;51715;39.432;-77.518;2023-08-20T03:29:16;99831.98;;;22.77;37.21
65013;BME280;51715;39.432;-77.518;2023-08-20T03:31:45;99836.21;;;22.94;37.55
65013;BME280;51715;39.432;-77.518;2023-08-20T03:34:13;99845.96;;;22.89;37.09
65013;BME280;51715;39.432;-77.518;2023-08-20T03:36:41;99851.46;;;22.80;37.55
65013;BME280;51715;39.432;-77.518;2023-08-20T03:39:09;99853.29;;;22.74;37.22
65013;BME280;51715;39.432;-77.518;2023-08-20T03:41:38;99852.14;;;22.64;37.88
65013;BME280;51715;39.432;-77.518;2023-08-20T03:44:06;99845.30;;;22.60;37.49
65013;BME280;51715;39.432;-77.518;2023-08-20T03:46:35;99846.02;;;22.43;38.39
65013;BME280;51715;39.432;-77.518;2023-08-20T03:49:03;99844.66;;;22.34;38.67
65013;BME280;51715;39.432;-77.518;2023-08-20T03:51:32;99842.34;;;22.29;38.40
65013;BME280;51715;39.432;-77.518;2023-08-20T03:54:00;99837.95;;;22.14;38.41
65013;BME280;51715;39.432;-77.518;2023-08-20T03:56:28;99841.63;;;22.38;38.91
65013;BME280;51715;39.432;-77.518;2023-08-20T03:58:56;99840.39;;;22.65;39.39
65013;BME280;51715;39.432;-77.518;2023-08-20T04:04:01;99838.87;;;22.39;38.08
65013;BME280;51715;39.432;-77.518;2023-08-20T04:06:30;99841.79;;;22.37;38.26
65013;BME280;51715;39.432;-77.518;2023-08-20T04:08:58;99848.84;;;22.40;37.82
65013;BME280;51715;39.432;-77.518;2023-08-20T04:11:27;99853.53;;;22.27;37.60
65013;BME280;51715;39.432;-77.518;2023-08-20T04:13:55;99854.09;;;22.61;37.26
65013;BME280;51715;39.432;-77.518;2023-08-20T04:16:23;99856.20;;;22.62;37.54
65013;BME280;51715;39.432;-77.518;2023-08-20T04:18:51;99857.92;;;22.20;37.19
65013;BME280;51715;39.432;-77.518;2023-08-20T04:21:19;99859.95;;;22.06;37.76
65013;BME280;51715;39.432;-77.518;2023-08-20T04:23:47;99860.66;;;22.41;37.90
65013;BME280;51715;39.432;-77.518;2023-08-20T04:26:15;99860.09;;;22.11;38.19
65013;BME280;51715;39.432;-77.518;2023-08-20T04:28:43;99861.03;;;22.27;38.08
65013;BME280;51715;39.432;-77.518;2023-08-20T04:31:11;99864.79;;;22.17;37.82
65013;BME280;51715;39.432;-77.518;2023-08-20T04:33:39;99871.66;;;22.06;38.38
65013;BME280;51715;39.432;-77.518;2023-08-20T04:36:07;99869.71;;;21.96;38.46
65013;BME280;51715;39.432;-77.518;2023-08-20T04:38:35;99872.15;;;21.91;38.63
65013;BME280;51715;39.432;-77.518;2023-08-20T04:41:03;99869.98;;;22.04;38.98
65013;BME280;51715;39.432;-77.518;2023-08-20T04:43:32;99872.43;;;21.75;38.83
65013;BME280;51715;39.432;-77.518;2023-08-20T04:46:00;99875.36;;;21.75;38.80
65013;BME280;51715;39.432;-77.518;2023-08-20T04:48:28;99874.71;;;21.94;39.21
65013;BME280;51715;39.432;-77.518;2023-08-20T04:50:56;99876.93;;;21.44;39.55
65013;BME280;51715;39.432;-77.518;2023-08-20T04:53:24;99876.04;;;21.41;39.66
65013;BME280;51715;39.432;-77.518;2023-08-20T04:55:52;99874.92;;;21.39;39.76
65013;BME280;51715;39.432;-77.518;2023-08-20T04:58:20;99875.01;;;21.70;39.36
65013;BME280;51715;39.432;-77.518;2023-08-20T05:00:48;99874.31;;;21.48;38.94
65013;BME280;51715;39.432;-77.518;2023-08-20T05:03:16;99871.55;;;21.76;39.13
65013;BME280;51715;39.432;-77.518;2023-08-20T05:05:49;99875.29;;;21.96;39.52
65013;BME280;51715;39.432;-77.518;2023-08-20T05:08:17;99875.58;;;21.40;39.46
65013;BME280;51715;39.432;-77.518;2023-08-20T05:10:45;99873.04;;;21.60;39.55
65013;BME280;51715;39.432;-77.518;2023-08-20T05:13:12;99871.70;;;21.33;39.13
65013;BME280;51715;39.432;-77.518;2023-08-20T05:15:41;99873.62;;;21.29;39.18
65013;BME280;51715;39.432;-77.518;2023-08-20T05:18:10;99874.17;;;21.57;39.17
65013;BME280;51715;39.432;-77.518;2023-08-20T05:20:40;99873.26;;;21.21;39.49
65013;BME280;51715;39.432;-77.518;2023-08-20T05:23:08;99872.50;;;21.40;39.70
65013;BME280;51715;39.432;-77.518;2023-08-20T05:25:42;99874.27;;;21.13;39.34
65013;BME280;51715;39.432;-77.518;2023-08-20T05:28:10;99870.84;;;21.15;39.56
65013;BME280;51715;39.432;-77.518;2023-08-20T05:30:38;99871.28;;;21.16;39.66
65013;BME280;51715;39.432;-77.518;2023-08-20T05:33:07;99871.11;;;21.41;39.63
65013;BME280;51715;39.432;-77.518;2023-08-20T05:35:35;99874.08;;;21.22;40.03
65013;BME280;51715;39.432;-77.518;2023-08-20T05:38:03;99872.32;;;21.20;40.14
65013;BME280;51715;39.432;-77.518;2023-08-20T05:40:32;99871.78;;;21.41;40.12
65013;BME280;51715;39.432;-77.518;2023-08-20T05:43:00;99872.35;;;20.90;40.16
65013;BME280;51715;39.432;-77.518;2023-08-20T05:45:28;99872.38;;;20.95;40.00
65013;BME280;51715;39.432;-77.518;2023-08-20T05:47:57;99868.58;;;21.25;39.97
65013;BME280;51715;39.432;-77.518;2023-08-20T05:50:25;99864.10;;;21.50;39.84
65013;BME280;51715;39.432;-77.518;2023-08-20T05:52:54;99865.72;;;21.26;39.98
65013;BME280;51715;39.432;-77.518;2023-08-20T05:55:22;99871.10;;;21.20;40.29
65013;BME280;51715;39.432;-77.518;2023-08-20T05:57:50;99873.42;;;21.27;40.36
65013;BME280;51715;39.432;-77.518;2023-08-20T06:00:18;99873.47;;;21.30;40.16
65013;BME280;51715;39.432;-77.518;2023-08-20T06:02:46;99872.37;;;21.23;40.48
65013;BME280;51715;39.432;-77.518;2023-08-20T06:05:14;99872.73;;;21.26;40.21
65013;BME280;51715;39.432;-77.518;2023-08-20T06:07:42;99873.50;;;21.24;40.39
65013;BME280;51715;39.432;-77.518;2023-08-20T06:10:11;99876.28;;;21.24;40.19
65013;BME280;51715;39.432;-77.518;2023-08-20T06:12:39;99884.36;;;21.26;40.08
65013;BME280;51715;39.432;-77.518;2023-08-20T06:15:08;99887.33;;;21.25;40.12
65013;BME280;51715;39.432;-77.518;2023-08-20T06:17:36;99885.06;;;21.19;40.62
65013;BME280;51715;39.432;-77.518;2023-08-20T06:20:05;99886.20;;;21.36;40.14
65013;BME280;51715;39.432;-77.518;2023-08-20T06:22:33;99887.12;;;21.11;40.00
65013;BME280;51715;39.432;-77.518;2023-08-20T06:25:01;99889.51;;;21.27;40.12
65013;BME280;51715;39.432;-77.518;2023-08-20T06:27:30;99891.11;;;21.24;40.20
65013;BME280;51715;39.432;-77.518;2023-08-20T06:29:58;99887.28;;;21.21;40.13
65013;BME280;51715;39.432;-77.518;2023-08-20T06:32:26;99878.80;;;20.92;40.07
65013;BME280;51715;39.432;-77.518;2023-08-20T06:34:54;99873.07;;;21.09;40.15
65013;BME280;51715;39.432;-77.518;2023-08-20T06:37:23;99871.96;;;21.05;40.08
65013;BME280;51715;39.432;-77.518;2023-08-20T06:39:50;99870.16;;;20.98;40.06
65013;BME280;51715;39.432;-77.518;2023-08-20T06:42:18;99869.57;;;21.00;40.05
65013;BME280;51715;39.432;-77.518;2023-08-20T06:44:46;99867.47;;;21.01;39.99
65013;BME280;51715;39.432;-77.518;2023-08-20T06:47:14;99868.22;;;20.72;39.90
65013;BME280;51715;39.432;-77.518;2023-08-20T06:49:42;99866.78;;;20.94;40.12
65013;BME280;51715;39.432;-77.518;2023-08-20T06:52:10;99870.14;;;20.76;40.23
65013;BME280;51715;39.432;-77.518;2023-08-20T06:54:38;99874.54;;;20.65;40.50
65013;BME280;51715;39.432;-77.518;2023-08-20T06:57:07;99869.88;;;20.60;40.76
65013;BME280;51715;39.432;-77.518;2023-08-20T06:59:34;99867.47;;;20.64;40.50
65013;BME280;51715;39.432;-77.518;2023-08-20T07:02:03;99868.61;;;20.46;40.31
65013;BME280;51715;39.432;-77.518;2023-08-20T07:04:31;99866.05;;;20.51;40.14
65013;BME280;51715;39.432;-77.518;2023-08-20T07:06:59;99867.07;;;20.51;40.30
65013;BME280;51715;39.432;-77.518;2023-08-20T07:09:27;99869.79;;;20.73;40.18
65013;BME280;51715;39.432;-77.518;2023-08-20T07:11:55;99871.96;;;20.69;40.11
65013;BME280;51715;39.432;-77.518;2023-08-20T07:14:24;99868.33;;;20.64;40.04
65013;BME280;51715;39.432;-77.518;2023-08-20T07:16:52;99868.43;;;20.65;40.09
65013;BME280;51715;39.432;-77.518;2023-08-20T07:19:20;99870.12;;;20.61;40.38
65013;BME280;51715;39.432;-77.518;2023-08-20T07:21:48;99870.07;;;20.37;40.63
65013;BME280;51715;39.432;-77.518;2023-08-20T07:24:16;99874.59;;;20.57;40.58
65013;BME280;51715;39.432;-77.518;2023-08-20T07:26:44;99873.61;;;20.56;40.49
65013;BME280;51715;39.432;-77.518;2023-08-20T07:29:13;99877.17;;;20.53;40.74
65013;BME280;51715;39.432;-77.518;2023-08-20T07:31:41;99885.16;;;20.51;40.04
65013;BME280;51715;39.432;-77.518;2023-08-20T07:34:10;99889.29;;;20.78;40.21
65013;BME280;51715;39.432;-77.518;2023-08-20T07:36:38;99891.47;;;20.45;40.46
65013;BME280;51715;39.432;-77.518;2023-08-20T07:39:07;99891.89;;;20.66;40.69
65013;BME280;51715;39.432;-77.518;2023-08-20T07:41:35;99900.71;;;20.28;40.96
65013;BME280;51715;39.432;-77.518;2023-08-20T07:44:04;99912.77;;;20.18;41.22
65013;BME280;51715;39.432;-77.518;2023-08-20T07:46:32;99915.79;;;20.16;41.29
65013;BME280;51715;39.432;-77.518;2023-08-20T07:49:00;99911.36;;;20.19;41.14
65013;BME280;51715;39.432;-77.518;2023-08-20T07:51:28;99910.17;;;20.51;40.79
65013;BME280;51715;39.432;-77.518;2023-08-20T07:53:56;99915.34;;;20.27;40.88
65013;BME280;51715;39.432;-77.518;2023-08-20T07:56:24;99917.35;;;20.30;40.75
65013;BME280;51715;39.432;-77.518;2023-08-20T07:58:52;99916.99;;;20.27;40.86
65013;BME280;51715;39.432;-77.518;2023-08-20T08:01:20;99921.36;;;20.74;40.61
65013;BME280;51715;39.432;-77.518;2023-08-20T08:03:48;99925.66;;;20.26;40.71
65013;BME280;51715;39.432;-77.518;2023-08-20T08:06:17;99927.58;;;20.21;40.85
65013;BME280;51715;39.432;-77.518;2023-08-20T08:08:47;99926.31;;;20.19;40.90
65013;BME280;51715;39.432;-77.518;2023-08-20T08:11:15;99924.71;;;20.19;40.93
65013;BME280;51715;39.432;-77.518;2023-08-20T08:13:42;99919.67;;;20.16;41.08
65013;BME280;51715;39.432;-77.518;2023-08-20T08:16:11;99917.14;;;20.13;41.13
65013;BME280;51715;39.432;-77.518;2023-08-20T08:18:39;99914.03;;;20.59;41.22
65013;BME280;51715;39.432;-77.518;2023-08-20T08:21:07;99911.21;;;20.09;41.24
65013;BME280;51715;39.432;-77.518;2023-08-20T08:23:35;99912.66;;;20.08;40.79
65013;BME280;51715;39.432;-77.518;2023-08-20T08:26:02;99914.22;;;20.05;41.09
65013;BME280;51715;39.432;-77.518;2023-08-20T08:28:31;99910.14;;;20.29;41.17
65013;BME280;51715;39.432;-77.518;2023-08-20T08:31:00;99909.25;;;20.31;41.22
65013;BME280;51715;39.432;-77.518;2023-08-20T08:33:28;99906.45;;;20.05;41.03
65013;BME280;51715;39.432;-77.518;2023-08-20T08:35:56;99906.17;;;20.13;40.81
65013;BME280;51715;39.432;-77.518;2023-08-20T08:38:25;99908.71;;;20.20;40.86
65013;BME280;51715;39.432;-77.518;2023-08-20T08:40:53;99915.95;;;20.23;40.64
65013;BME280;51715;39.432;-77.518;2023-08-20T08:43:23;99920.71;;;20.19;40.35
65013;BME280;51715;39.432;-77.518;2023-08-20T08:45:52;99921.07;;;20.04;41.04
65013;BME280;51715;39.432;-77.518;2023-08-20T08:48:25;99923.16;;;20.00;41.25
65013;BME280;51715;39.432;-77.518;2023-08-20T08:50:54;99923.55;;;20.44;41.33
65013;BME280;51715;39.432;-77.518;2023-08-20T08:53:23;99921.98;;;19.93;41.47
65013;BME280;51715;39.432;-77.518;2023-08-20T08:55:52;99919.64;;;19.85;41.67
65013;BME280;51715;39.432;-77.518;2023-08-20T08:58:20;99915.81;;;20.13;42.04
65013;BME280;51715;39.432;-77.518;2023-08-20T09:00:49;99910.95;;;20.00;42.37
65013;BME280;51715;39.432;-77.518;2023-08-20T09:03:17;99912.48;;;19.82;42.16
65013;BME280;51715;39.432;-77.518;2023-08-20T09:05:48;99917.62;;;19.58;42.10
65013;BME280;51715;39.432;-77.518;2023-08-20T09:08:21;99918.47;;;20.13;42.02
65013;BME280;51715;39.432;-77.518;2023-08-20T09:10:51;99923.00;;;20.15;42.03
65013;BME280;51715;39.432;-77.518;2023-08-20T09:13:22;99926.57;;;19.69;41.86
65013;BME280;51715;39.432;-77.518;2023-08-20T09:15:52;99926.79;;;19.68;41.68
65013;BME280;51715;39.432;-77.518;2023-08-20T09:18:19;99929.34;;;20.17;41.68
65013;BME280;51715;39.432;-77.518;2023-08-20T09:20:48;99930.95;;;19.96;41.61
65013;BME280;51715;39.432;-77.518;2023-08-20T09:23:17;99935.44;;;19.67;41.58
65013;BME280;51715;39.432;-77.518;2023-08-20T09:25:45;99939.80;;;20.14;41.52
65013;BME280;51715;39.432;-77.518;2023-08-20T09:28:14;99944.13;;;20.14;41.44
65013;BME280;51715;39.432;-77.518;2023-08-20T09:30:56;99943.55;;;20.10;41.58
65013;BME280;51715;39.432;-77.518;2023-08-20T09:33:25;99941.56;;;19.86;41.68
65013;BME280;51715;39.432;-77.518;2023-08-20T09:35:53;99941.08;;;19.56;41.62
65013;BME280;51715;39.432;-77.518;2023-08-20T09:38:22;99943.10;;;19.81;41.69
65013;BME280;51715;39.432;-77.518;2023-08-20T09:40:52;99949.29;;;19.77;41.49
65013;BME280;51715;39.432;-77.518;2023-08-20T09:43:20;99949.27;;;19.73;41.83
65013;BME280;51715;39.432;-77.518;2023-08-20T09:45:50;99952.01;;;19.95;41.89
65013;BME280;51715;39.432;-77.518;2023-08-20T09:48:19;99957.68;;;19.73;41.88
65013;BME280;51715;39.432;-77.518;2023-08-20T09:50:48;99957.15;;;19.39;42.07
65013;BME280;51715;39.432;-77.518;2023-08-20T09:53:24;99958.10;;;19.41;41.95
65013;BME280;51715;39.432;-77.518;2023-08-20T09:55:58;99957.56;;;19.69;41.66
65013;BME280;51715;39.432;-77.518;2023-08-20T09:58:30;99956.77;;;19.89;41.82
65013;BME280;51715;39.432;-77.518;2023-08-20T10:00:59;99953.76;;;19.82;42.22
65013;BME280;51715;39.432;-77.518;2023-08-20T10:03:28;99956.76;;;19.79;42.16
65013;BME280;51715;39.432;-77.518;2023-08-20T10:05:57;99963.55;;;19.81;42.37
65013;BME280;51715;39.432;-77.518;2023-08-20T10:08:26;99967.97;;;19.84;42.20
65013;BME280;51715;39.432;-77.518;2023-08-20T10:10:56;99973.15;;;19.62;42.00
65013;BME280;51715;39.432;-77.518;2023-08-20T10:13:24;99973.45;;;19.83;41.96
65013;BME280;51715;39.432;-77.518;2023-08-20T10:15:52;99976.49;;;19.31;42.11
65013;BME280;51715;39.432;-77.518;2023-08-20T10:18:20;99977.76;;;19.77;42.03
65013;BME280;51715;39.432;-77.518;2023-08-20T10:20:50;99980.60;;;19.72;42.11
65013;BME280;51715;39.432;-77.518;2023-08-20T10:23:21;99984.77;;;19.47;42.30
65013;BME280;51715;39.432;-77.518;2023-08-20T10:25:52;99987.04;;;19.68;42.52
65013;BME280;51715;39.432;-77.518;2023-08-20T10:28:24;99993.12;;;19.70;42.66
65013;BME280;51715;39.432;-77.518;2023-08-20T10:31:09;99997.07;;;19.69;42.79
65013;BME280;51715;39.432;-77.518;2023-08-20T10:33:47;100006.68;;;19.87;43.01
65013;BME280;51715;39.432;-77.518;2023-08-20T10:36:17;100014.56;;;19.39;43.19
65013;BME280;51715;39.432;-77.518;2023-08-20T10:38:46;100021.78;;;19.58;43.32
65013;BME280;51715;39.432;-77.518;2023-08-20T10:41:14;100025.52;;;19.61;43.50
65013;BME280;51715;39.432;-77.518;2023-08-20T10:43:47;100028.20;;;19.59;43.07
65013;BME280;51715;39.432;-77.518;2023-08-20T10:46:17;100035.27;;;19.58;43.56
65013;BME280;51715;39.432;-77.518;2023-08-20T10:48:48;100036.97;;;19.52;43.72
65013;BME280;51715;39.432;-77.518;2023-08-20T10:51:18;100040.70;;;19.30;43.90
65013;BME280;51715;39.432;-77.518;2023-08-20T10:54:02;100046.30;;;19.57;43.79
65013;BME280;51715;39.432;-77.518;2023-08-20T10:56:40;100049.52;;;19.60;43.79
65013;BME280;51715;39.432;-77.518;2023-08-20T10:59:09;100053.47;;;19.67;43.74
65013;BME280;51715;39.432;-77.518;2023-08-20T11:01:39;100050.22;;;19.68;43.72
65013;BME280;51715;39.432;-77.518;2023-08-20T11:04:09;100056.27;;;19.67;43.85
65013;BME280;51715;39.432;-77.518;2023-08-20T11:06:37;100057.26;;;19.73;43.91
65013;BME280;51715;39.432;-77.518;2023-08-20T11:09:06;100055.31;;;19.76;43.75
65013;BME280;51715;39.432;-77.518;2023-08-20T11:11:35;100055.68;;;19.34;43.85
65013;BME280;51715;39.432;-77.518;2023-08-20T11:14:06;100061.24;;;19.87;43.82
65013;BME280;51715;39.432;-77.518;2023-08-20T11:16:35;100059.05;;;19.91;43.85
65013;BME280;51715;39.432;-77.518;2023-08-20T11:19:04;100061.72;;;19.88;43.74
65013;BME280;51715;39.432;-77.518;2023-08-20T11:21:32;100062.29;;;19.76;43.71
65013;BME280;51715;39.432;-77.518;2023-08-20T11:24:01;100066.76;;;19.97;43.80
65013;BME280;51715;39.432;-77.518;2023-08-20T11:26:30;100071.28;;;20.04;43.82
65013;BME280;51715;39.432;-77.518;2023-08-20T11:28:58;100070.96;;;19.90;43.84
65013;BME280;51715;39.432;-77.518;2023-08-20T11:31:27;100071.52;;;20.19;44.10
65013;BME280;51715;39.432;-77.518;2023-08-20T11:33:57;100076.43;;;20.26;44.46
65013;BME280;51715;39.432;-77.518;2023-08-20T11:36:25;100078.74;;;19.86;44.34
65013;BME280;51715;39.432;-77.518;2023-08-20T11:38:54;100081.97;;;20.00;44.41
65013;BME280;51715;39.432;-77.518;2023-08-20T11:41:25;100084.41;;;20.11;44.01
65013;BME280;51715;39.432;-77.518;2023-08-20T11:43:53;100082.71;;;20.28;44.21
65013;BME280;51715;39.432;-77.518;2023-08-20T11:46:23;100087.17;;;20.46;44.40
65013;BME280;51715;39.432;-77.518;2023-08-20T11:49:08;100091.99;;;20.56;44.41
65013;BME280;51715;39.432;-77.518;2023-08-20T11:51:37;100089.26;;;20.49;44.74
65013;BME280;51715;39.432;-77.518;2023-08-20T11:54:06;100082.89;;;20.65;44.82
65013;BME280;51715;39.432;-77.518;2023-08-20T11:56:36;100081.84;;;20.84;44.56
65013;BME280;51715;39.432;-77.518;2023-08-20T11:59:04;100082.60;;;21.00;44.66
65013;BME280;51715;39.432;-77.518;2023-08-20T12:01:33;100081.63;;;20.89;44.65
65013;BME280;51715;39.432;-77.518;2023-08-20T12:04:03;100079.95;;;21.16;44.68
65013;BME280;51715;39.432;-77.518;2023-08-20T12:06:33;100079.77;;;21.44;44.77
65013;BME280;51715;39.432;-77.518;2023-08-20T12:09:17;100078.97;;;21.57;44.11
65013;BME280;51715;39.432;-77.518;2023-08-20T12:11:49;100077.51;;;21.77;44.21
65013;BME280;51715;39.432;-77.518;2023-08-20T12:14:18;100078.78;;;21.95;44.18
65013;BME280;51715;39.432;-77.518;2023-08-20T12:16:47;100080.05;;;21.94;43.79
65013;BME280;51715;39.432;-77.518;2023-08-20T12:19:16;100084.95;;;22.19;43.90
65013;BME280;51715;39.432;-77.518;2023-08-20T12:21:44;100085.08;;;22.21;44.10
65013;BME280;51715;39.432;-77.518;2023-08-20T12:24:12;100090.55;;;22.64;43.50
65013;BME280;51715;39.432;-77.518;2023-08-20T12:26:40;100091.88;;;22.66;43.14
65013;BME280;51715;39.432;-77.518;2023-08-20T12:29:08;100096.33;;;22.64;42.91
65013;BME280;51715;39.432;-77.518;2023-08-20T12:31:36;100098.81;;;23.13;42.65
65013;BME280;51715;39.432;-77.518;2023-08-20T12:34:04;100101.28;;;23.12;41.39
65013;BME280;51715;39.432;-77.518;2023-08-20T12:36:33;100098.50;;;23.33;40.31
65013;BME280;51715;39.432;-77.518;2023-08-20T12:39:00;100099.61;;;23.55;39.55
65013;BME280;51715;39.432;-77.518;2023-08-20T12:41:28;100098.24;;;23.57;39.75
65013;BME280;51715;39.432;-77.518;2023-08-20T12:43:57;100099.31;;;23.73;39.77
65013;BME280;51715;39.432;-77.518;2023-08-20T12:46:25;100096.65;;;23.95;39.49
65013;BME280;51715;39.432;-77.518;2023-08-20T12:48:54;100095.93;;;24.33;38.45
65013;BME280;51715;39.432;-77.518;2023-08-20T12:51:21;100099.77;;;24.17;37.35